Flight Briefing for CPX83

Departure Arrival
Auckland International Airport (NZAA)
Click to view FAA NOTAMS
Daniel K Inouye International Airport (PHNL)
Click to view FAA NOTAMS
Departure Time Arrival Time
N/A N/A
Aircraft Distance
B747-400BCF 3832nm
Departure METAR Arrival METAR
NZAA 260000Z AUTO 02013KT 9999 SCT040/// 24/14 Q1025 NOSIG PHNL 252353Z 07012G18KT 10SM SCT028 BKN046 BKN075 27/18 A3006 RMK AO2 RAB22E32 SLP179 P0000 60000 T02720178 10278 20228 58015
Suggested Route
TARIB G347 UBRAX OVLAD CUFFY A579 CROBY A579 CHEEM A579 CARRP OPACA4


View recent IFR Routes data
Notes



Charts and Procedures

Charts for NZAA
No chart available
Charts for PHNL
No chart available

Windy.com Weather Map